createdAt,value
2022-10-04T00:01:30.145Z,100951.19
2022-10-04T00:04:07.006Z,100946.00
2022-10-04T00:06:36.740Z,100941.69
2022-10-04T00:09:10.042Z,100943.50
2022-10-04T00:11:45.140Z,100935.69
2022-10-04T00:14:21.179Z,100921.00
2022-10-04T00:16:50.269Z,100934.81
2022-10-04T00:19:42.527Z,100927.91
2022-10-04T00:22:22.697Z,100920.91
2022-10-04T00:25:22.845Z,100937.38
2022-10-04T00:28:36.796Z,100951.19
2022-10-04T00:31:23.040Z,100939.97
2022-10-04T00:33:54.843Z,100923.44
2022-10-04T00:36:52.004Z,100916.56
2022-10-04T00:39:43.269Z,100919.16
2022-10-04T00:42:39.583Z,100912.28
2022-10-04T00:45:28.632Z,100913.16
2022-10-04T00:48:33.028Z,100913.16
2022-10-04T00:51:10.547Z,100910.56
2022-10-04T00:53:49.468Z,100912.19
2022-10-04T00:56:26.997Z,100916.44
2022-10-04T00:59:31.146Z,100918.13
2022-10-04T01:02:04.509Z,100914.72
2022-10-04T01:04:42.047Z,100914.69
2022-10-04T01:07:13.258Z,100911.19
2022-10-04T01:09:51.429Z,100922.38
2022-10-04T01:12:34.449Z,100923.28
2022-10-04T01:15:10.186Z,100915.53
2022-10-04T01:17:38.627Z,100919.78
2022-10-04T01:20:33.720Z,100921.34
2022-10-04T01:23:05.459Z,100912.50
2022-10-04T01:25:52.091Z,100920.22
2022-10-04T01:28:21.291Z,100912.34
2022-10-04T01:30:49.937Z,100896.88
2022-10-04T01:33:18.420Z,100890.03
2022-10-04T01:35:47.254Z,100876.19
2022-10-04T01:38:17.333Z,100881.53
2022-10-04T01:40:54.703Z,100878.78
2022-10-04T01:43:30.459Z,100877.97
2022-10-04T01:46:06.072Z,100888.34
2022-10-04T01:48:39.005Z,100879.72
2022-10-04T01:51:14.569Z,100879.75
2022-10-04T01:53:49.600Z,100871.00
2022-10-04T01:56:22.612Z,100880.38
2022-10-04T01:58:55.349Z,100874.38
2022-10-04T02:01:30.671Z,100867.41
2022-10-04T02:04:04.727Z,100862.31
2022-10-04T02:06:39.758Z,100861.53
2022-10-04T02:09:15.375Z,100864.84
2022-10-04T02:11:45.906Z,100874.34
2022-10-04T02:14:17.595Z,100866.56
2022-10-04T02:16:48.189Z,100870.88
2022-10-04T02:19:17.650Z,100857.25
2022-10-04T02:21:46.783Z,100850.25
2022-10-04T02:24:17.381Z,100851.13
2022-10-04T02:26:51.578Z,100841.69
2022-10-04T02:29:21.830Z,100849.38
2022-10-04T02:32:09.812Z,100842.56
2022-10-04T02:34:39.142Z,100837.28
2022-10-04T02:37:08.403Z,100837.31
2022-10-04T02:39:44.049Z,100845.91
2022-10-04T02:42:21.735Z,100832.88
2022-10-04T02:44:56.761Z,100829.50
2022-10-04T02:47:29.433Z,100830.44
2022-10-04T02:50:02.202Z,100840.84
2022-10-04T02:52:35.916Z,100850.22
2022-10-04T02:55:12.139Z,100842.41
2022-10-04T02:57:44.342Z,100844.97
2022-10-04T03:00:20.438Z,100845.06
2022-10-04T03:03:18.266Z,100854.59
2022-10-04T03:05:57.628Z,100852.03
2022-10-04T03:08:26.806Z,100854.63
2022-10-04T03:10:57.129Z,100838.97
2022-10-04T03:13:25.575Z,100837.19
2022-10-04T03:15:54.138Z,100834.41
2022-10-04T03:18:23.953Z,100837.94
2022-10-04T03:20:52.444Z,100834.63
2022-10-04T03:23:22.390Z,100846.56
2022-10-04T03:25:54.852Z,100847.47
2022-10-04T03:28:24.775Z,100836.34
2022-10-04T03:30:54.157Z,100831.19
2022-10-04T03:33:25.961Z,100833.81
2022-10-04T03:35:57.787Z,100832.84
2022-10-04T03:38:27.565Z,100824.25
2022-10-04T03:40:59.111Z,100822.34
2022-10-04T03:43:31.814Z,100815.34
2022-10-04T03:46:02.433Z,100808.38
2022-10-04T03:48:37.324Z,100821.38
2022-10-04T03:51:09.277Z,100821.44
2022-10-04T03:53:43.448Z,100817.94
2022-10-04T03:56:14.890Z,100815.41
2022-10-04T03:58:45.409Z,100812.03
2022-10-04T04:01:28.823Z,100818.09
2022-10-04T04:04:04.339Z,100824.97
2022-10-04T04:06:46.470Z,100819.91
2022-10-04T04:09:23.969Z,100817.34
2022-10-04T04:11:53.581Z,100813.09
2022-10-04T04:14:27.767Z,100806.19
2022-10-04T04:17:30.889Z,100807.16
2022-10-04T04:20:07.122Z,100795.22
2022-10-04T04:22:37.922Z,100800.81
2022-10-04T04:25:14.088Z,100795.59
2022-10-04T04:27:45.321Z,100801.69
2022-10-04T04:30:19.219Z,100805.25
2022-10-04T04:32:52.690Z,100814.75
2022-10-04T04:35:31.244Z,100804.34
2022-10-04T04:38:20.906Z,100811.25
2022-10-04T04:40:49.652Z,100808.75
2022-10-04T04:43:20.795Z,100801.06
2022-10-04T04:46:08.586Z,100797.66
2022-10-04T04:48:40.115Z,100805.38
2022-10-04T04:51:09.164Z,100802.09
2022-10-04T04:53:38.237Z,100788.25
2022-10-04T04:56:11.096Z,100801.03
2022-10-04T04:58:46.164Z,100801.13
2022-10-04T05:01:25.720Z,100795.13
2022-10-04T05:04:05.921Z,100796.00
2022-10-04T05:06:36.306Z,100800.28
2022-10-04T05:09:05.929Z,100804.56
2022-10-04T05:11:38.168Z,100797.66
2022-10-04T05:14:10.551Z,100794.34
2022-10-04T05:16:44.882Z,100797.69
2022-10-04T05:19:17.744Z,100809.78
2022-10-04T05:21:48.675Z,100816.50
2022-10-04T05:24:26.035Z,100825.78
2022-10-04T05:26:58.357Z,100817.84
2022-10-04T05:29:29.829Z,100808.31
2022-10-04T05:32:13.345Z,100814.34
2022-10-04T05:34:45.771Z,100815.69
2022-10-04T05:37:44.399Z,100821.00
2022-10-04T05:40:33.657Z,100808.94
2022-10-04T05:43:02.240Z,100812.22
2022-10-04T05:45:32.707Z,100805.50
2022-10-04T05:48:08.134Z,100812.38
2022-10-04T05:50:40.771Z,100808.16
2022-10-04T05:53:24.359Z,100809.81
2022-10-04T05:56:05.610Z,100815.63
2022-10-04T05:58:54.133Z,100822.53
2022-10-04T06:01:37.875Z,100813.16
2022-10-04T06:04:30.806Z,100815.84
2022-10-04T06:07:03.188Z,100820.06
2022-10-04T06:10:19.896Z,100826.06
2022-10-04T06:12:58.391Z,100820.91
2022-10-04T06:15:57.572Z,100836.38
2022-10-04T06:18:44.248Z,100846.72
2022-10-04T06:21:21.835Z,100847.72
2022-10-04T06:23:58.883Z,100844.94
2022-10-04T06:26:33.518Z,100846.75
2022-10-04T06:29:10.601Z,100843.47
2022-10-04T06:32:08.958Z,100850.34
2022-10-04T06:35:18.512Z,100846.03
2022-10-04T06:38:11.330Z,100848.63
2022-10-04T06:41:02.752Z,100855.63
2022-10-04T06:43:51.891Z,100844.47
2022-10-04T06:46:29.566Z,100852.31
2022-10-04T06:49:35.416Z,100845.38
2022-10-04T06:52:25.239Z,100843.81
2022-10-04T06:55:26.067Z,100843.81
2022-10-04T06:58:30.074Z,100843.78
2022-10-04T07:01:03.861Z,100837.75
2022-10-04T07:03:40.964Z,100832.66
2022-10-04T07:06:11.854Z,100830.84
2022-10-04T07:08:48.394Z,100830.16
2022-10-04T07:11:24.493Z,100826.84
2022-10-04T07:13:57.800Z,100821.75
2022-10-04T07:16:40.934Z,100813.25
2022-10-04T07:19:36.346Z,100808.97
2022-10-04T07:22:16.995Z,100804.66
2022-10-04T07:25:02.269Z,100804.69
2022-10-04T07:27:38.209Z,100804.72
2022-10-04T07:30:14.730Z,100800.41
2022-10-04T07:32:48.070Z,100809.94
2022-10-04T07:35:28.465Z,100811.75
2022-10-04T07:38:05.654Z,100822.13
2022-10-04T07:40:37.967Z,100817.81
2022-10-04T07:43:14.651Z,100829.09
2022-10-04T07:45:43.562Z,100821.31
2022-10-04T07:48:17.776Z,100821.34
2022-10-04T07:51:00.300Z,100823.06
2022-10-04T07:53:38.800Z,100834.31
2022-10-04T07:56:12.609Z,100840.44
2022-10-04T07:58:53.297Z,100842.16
2022-10-04T08:01:31.635Z,100843.03
2022-10-04T08:04:18.813Z,100849.06
2022-10-04T08:06:59.155Z,100845.59
2022-10-04T08:09:43.863Z,100849.88
2022-10-04T08:12:22.772Z,100841.94
2022-10-04T08:15:21.866Z,100843.63
2022-10-04T08:17:58.771Z,100835.78
2022-10-04T08:20:39.080Z,100831.41
2022-10-04T08:23:32.091Z,100831.94
2022-10-04T08:26:33.027Z,100842.22
2022-10-04T08:29:45.005Z,100833.47
2022-10-04T08:32:33.219Z,100835.09
2022-10-04T08:35:38.523Z,100835.50
2022-10-04T08:38:23.593Z,100832.00
2022-10-04T08:41:27.036Z,100830.13
2022-10-04T08:44:43.828Z,100831.72
2022-10-04T08:48:08.250Z,100831.94
2022-10-04T08:51:23.567Z,100834.84
2022-10-04T08:55:20.791Z,100832.72
2022-10-04T08:58:33.401Z,100839.00
2022-10-04T09:01:25.666Z,100832.91
2022-10-04T09:04:37.539Z,100835.41
2022-10-04T09:07:29.133Z,100836.38
2022-10-04T09:10:44.610Z,100835.75
2022-10-04T09:13:37.935Z,100833.88
2022-10-04T09:16:26.215Z,100827.97
2022-10-04T09:19:21.874Z,100831.13
2022-10-04T09:22:19.949Z,100817.91
2022-10-04T09:25:46.947Z,100834.72
2022-10-04T09:29:04.983Z,100839.97
2022-10-04T09:32:25.316Z,100823.97
2022-10-04T09:35:50.589Z,100827.78
2022-10-04T09:39:25.297Z,100830.28
2022-10-04T09:42:29.090Z,100822.06
2022-10-04T09:45:31.196Z,100818.38
2022-10-04T09:48:37.004Z,100822.09
2022-10-04T09:51:23.313Z,100819.59
2022-10-04T09:54:19.904Z,100824.34
2022-10-04T09:57:17.128Z,100814.00
2022-10-04T10:00:22.226Z,100810.78
2022-10-04T10:04:00.973Z,100810.66
2022-10-04T10:07:19.588Z,100811.88
2022-10-04T10:10:18.679Z,100801.31
2022-10-04T10:13:40.034Z,100806.00
2022-10-04T10:16:27.589Z,100804.81
2022-10-04T10:19:17.711Z,100804.50
2022-10-04T10:22:01.012Z,100810.53
2022-10-04T10:25:08.103Z,100810.59
2022-10-04T10:28:00.898Z,100806.66
2022-10-04T10:30:39.369Z,100807.91
2022-10-04T10:33:40.541Z,100809.59
2022-10-04T10:36:47.131Z,100806.59
2022-10-04T10:39:57.753Z,100809.38
2022-10-04T10:43:15.493Z,100811.72
2022-10-04T10:46:15.544Z,100813.16
2022-10-04T10:49:06.138Z,100805.84
2022-10-04T10:52:01.254Z,100799.66
2022-10-04T10:55:09.579Z,100805.28
2022-10-04T10:58:20.895Z,100800.69
2022-10-04T11:01:03.302Z,100808.69
2022-10-04T11:04:04.830Z,100797.91
2022-10-04T11:07:14.131Z,100797.38
2022-10-04T11:10:29.310Z,100801.28
2022-10-04T11:13:41.988Z,100798.44
2022-10-04T11:16:44.423Z,100796.50
2022-10-04T11:20:03.376Z,100789.22
2022-10-04T11:23:12.028Z,100787.66
2022-10-04T11:26:12.590Z,100781.97
2022-10-04T11:28:47.779Z,100784.53
2022-10-04T11:31:55.267Z,100787.38
2022-10-04T11:35:26.942Z,100790.03
2022-10-04T11:38:11.223Z,100789.38
2022-10-04T11:41:04.455Z,100783.47
2022-10-04T11:44:29.462Z,100770.88
2022-10-04T11:47:07.946Z,100776.31
2022-10-04T11:50:05.247Z,100770.78
2022-10-04T11:53:06.273Z,100758.50
2022-10-04T11:56:20.136Z,100750.72
2022-10-04T11:59:09.819Z,100749.56
2022-10-04T12:02:23.013Z,100743.63
2022-10-04T12:05:22.234Z,100749.19
2022-10-04T12:08:03.521Z,100732.50
2022-10-04T12:10:37.735Z,100743.47
2022-10-04T12:13:40.741Z,100731.63
2022-10-04T12:17:18.605Z,100738.78
2022-10-04T12:20:12.282Z,100732.25
2022-10-04T12:23:11.197Z,100724.94
2022-10-04T12:26:01.803Z,100726.19
2022-10-04T12:29:10.137Z,100720.66
2022-10-04T12:31:44.977Z,100720.88
2022-10-04T12:34:24.765Z,100707.66
2022-10-04T12:37:18.845Z,100707.34
2022-10-04T12:40:30.331Z,100706.75
2022-10-04T12:43:08.592Z,100708.47
2022-10-04T12:45:52.948Z,100709.28
2022-10-04T12:49:11.808Z,100702.06
2022-10-04T12:51:56.444Z,100698.19
2022-10-04T12:54:39.493Z,100690.72
2022-10-04T12:57:33.765Z,100700.03
2022-10-04T13:00:16.320Z,100691.91
2022-10-04T13:03:06.769Z,100697.41
2022-10-04T13:05:43.762Z,100692.19
2022-10-04T13:08:27.867Z,100696.41
2022-10-04T13:11:24.116Z,100687.59
2022-10-04T13:14:32.370Z,100692.50
2022-10-04T13:17:34.528Z,100692.94
2022-10-04T13:20:21.474Z,100687.69
2022-10-04T13:22:57.288Z,100691.38
2022-10-04T13:25:52.173Z,100688.97
2022-10-04T13:28:30.723Z,100680.34
2022-10-04T13:31:06.988Z,100679.59
2022-10-04T13:33:47.397Z,100681.72
2022-10-04T13:36:25.485Z,100681.81
2022-10-04T13:39:31.490Z,100674.88
2022-10-04T13:42:35.827Z,100674.66
2022-10-04T13:45:34.173Z,100671.16
2022-10-04T13:48:26.167Z,100668.09
2022-10-04T13:51:16.269Z,100670.94
2022-10-04T13:54:13.877Z,100662.50
2022-10-04T13:57:25.674Z,100655.41
2022-10-04T14:00:03.516Z,100648.63
2022-10-04T14:03:19.768Z,100640.03
2022-10-04T14:06:47.224Z,100638.22
2022-10-04T14:10:11.767Z,100649.31
2022-10-04T14:13:33.652Z,100649.34
2022-10-04T14:16:37.100Z,100654.72
2022-10-04T14:20:03.810Z,100651.94
2022-10-04T14:23:08.613Z,100646.03
2022-10-04T14:26:28.341Z,100640.91
2022-10-04T14:29:37.192Z,100635.72
2022-10-04T14:32:52.153Z,100630.97
2022-10-04T14:35:27.380Z,100631.78
2022-10-04T14:38:36.166Z,100630.06
2022-10-04T14:42:11.750Z,100622.91
2022-10-04T14:45:11.455Z,100624.50
2022-10-04T14:48:30.731Z,100620.34
2022-10-04T14:51:26.615Z,100619.47
2022-10-04T14:54:03.168Z,100614.66
2022-10-04T14:56:59.291Z,100609.69
2022-10-04T14:59:52.005Z,100611.22
2022-10-04T15:03:13.328Z,100600.28
2022-10-04T15:06:09.312Z,100587.13
2022-10-04T15:09:18.759Z,100589.03
2022-10-04T15:12:25.361Z,100586.91
2022-10-04T15:15:14.878Z,100595.59
2022-10-04T15:17:57.963Z,100597.72
2022-10-04T15:20:34.294Z,100604.81
2022-10-04T15:23:16.823Z,100604.81
2022-10-04T15:25:48.318Z,100596.31
2022-10-04T15:28:46.431Z,100598.69
2022-10-04T15:31:25.638Z,100592.47
2022-10-04T15:34:04.630Z,100590.22
2022-10-04T15:37:10.170Z,100598.34
2022-10-04T15:40:27.980Z,100594.72
2022-10-04T15:43:19.330Z,100592.22
2022-10-04T15:46:35.249Z,100578.06
2022-10-04T15:49:37.101Z,100577.28
2022-10-04T15:52:27.569Z,100570.59
2022-10-04T15:55:19.867Z,100568.00
2022-10-04T15:58:52.729Z,100568.31
2022-10-04T16:02:08.902Z,100571.56
2022-10-04T16:04:47.095Z,100566.56
2022-10-04T16:08:04.378Z,100573.56
2022-10-04T16:11:00.915Z,100567.63
2022-10-04T16:14:19.999Z,100557.34
2022-10-04T16:17:26.524Z,100556.59
2022-10-04T16:20:38.758Z,100549.84
2022-10-04T16:23:34.160Z,100547.28
2022-10-04T16:26:06.379Z,100548.22
2022-10-04T16:29:05.646Z,100550.03
2022-10-04T16:31:54.509Z,100541.78
2022-10-04T16:34:48.268Z,100525.41
2022-10-04T16:37:39.816Z,100535.22
2022-10-04T16:40:31.941Z,100542.47
2022-10-04T16:43:04.485Z,100545.25
2022-10-04T16:45:51.378Z,100539.34
2022-10-04T16:48:51.610Z,100547.38
2022-10-04T16:51:55.223Z,100553.81
2022-10-04T16:55:02.981Z,100559.25
2022-10-04T16:57:31.610Z,100552.53
2022-10-04T17:00:05.823Z,100552.72
2022-10-04T17:03:08.635Z,100556.47
2022-10-04T17:06:14.223Z,100556.69
2022-10-04T17:08:55.535Z,100562.19
2022-10-04T17:11:45.726Z,100575.47
2022-10-04T17:14:52.139Z,100573.94
2022-10-04T17:17:33.398Z,100573.25
2022-10-04T17:20:13.887Z,100587.41
2022-10-04T17:22:59.463Z,100578.81
2022-10-04T17:25:35.036Z,100580.75
2022-10-04T17:28:26.214Z,100573.91
2022-10-04T17:31:04.120Z,100573.91
2022-10-04T17:33:44.018Z,100583.59
2022-10-04T17:36:34.690Z,100581.19
2022-10-04T17:39:18.372Z,100583.88
2022-10-04T17:42:07.523Z,100584.00
2022-10-04T17:45:09.394Z,100592.81
2022-10-04T17:48:11.858Z,100590.34
2022-10-04T17:51:06.497Z,100594.06
2022-10-04T17:53:55.720Z,100599.38
2022-10-04T17:56:33.783Z,100601.31
2022-10-04T17:59:12.397Z,100597.06
2022-10-04T18:01:46.860Z,100601.53
2022-10-04T18:04:23.656Z,100594.72
2022-10-04T18:06:58.797Z,100603.53
2022-10-04T18:09:35.659Z,100596.69
2022-10-04T18:12:12.738Z,100605.47
2022-10-04T18:15:03.699Z,100607.31
2022-10-04T18:17:39.627Z,100612.63
2022-10-04T18:20:29.334Z,100610.91
2022-10-04T18:23:01.724Z,100607.53
2022-10-04T18:25:33.996Z,100595.44
2022-10-04T18:28:11.768Z,100607.66
2022-10-04T18:30:59.151Z,100601.69
2022-10-04T18:33:48.245Z,100603.50
2022-10-04T18:36:19.560Z,100598.41
2022-10-04T18:39:03.963Z,100603.66
2022-10-04T18:41:50.624Z,100607.13
2022-10-04T18:44:23.362Z,100604.69
2022-10-04T18:46:57.892Z,100605.59
2022-10-04T18:49:32.939Z,100602.19
2022-10-04T18:52:21.232Z,100604.91
2022-10-04T18:55:02.679Z,100604.94
2022-10-04T18:57:57.970Z,100607.63
2022-10-04T19:00:45.847Z,100620.72
2022-10-04T19:03:24.702Z,100627.72
2022-10-04T19:06:01.441Z,100629.56
2022-10-04T19:08:47.128Z,100626.94
2022-10-04T19:11:20.586Z,100624.41
2022-10-04T19:13:57.110Z,100630.59
2022-10-04T19:16:45.053Z,100628.94
2022-10-04T19:19:40.965Z,100636.84
2022-10-04T19:22:31.362Z,100645.63
2022-10-04T19:25:30.143Z,100650.91
2022-10-04T19:28:11.176Z,100646.56
2022-10-04T19:31:06.415Z,100654.38
2022-10-04T19:33:47.914Z,100646.63
2022-10-04T19:36:45.457Z,100653.63
2022-10-04T19:39:32.136Z,100655.41
2022-10-04T19:42:04.291Z,100656.31
2022-10-04T19:45:02.435Z,100655.56
2022-10-04T19:47:43.426Z,100646.91
2022-10-04T19:50:23.821Z,100653.03
2022-10-04T19:52:56.237Z,100647.06
2022-10-04T19:55:48.546Z,100654.03
2022-10-04T19:58:31.885Z,100653.28
2022-10-04T20:01:00.474Z,100650.69
2022-10-04T20:03:28.868Z,100651.63
2022-10-04T20:05:57.646Z,100645.59
2022-10-04T20:08:52.275Z,100649.13
2022-10-04T20:11:24.792Z,100644.88
2022-10-04T20:14:47.055Z,100647.59
2022-10-04T20:17:33.983Z,100651.16
2022-10-04T20:20:02.355Z,100657.25
2022-10-04T20:22:56.349Z,100662.47
2022-10-04T20:26:02.626Z,100667.78
2022-10-04T20:28:43.611Z,100667.81
2022-10-04T20:31:54.000Z,100667.00
2022-10-04T20:34:35.461Z,100667.91
2022-10-04T20:37:04.824Z,100667.03
2022-10-04T20:40:00.373Z,100660.25
2022-10-04T20:42:37.626Z,100661.94
2022-10-04T20:45:27.904Z,100665.47
2022-10-04T20:47:58.255Z,100666.41
2022-10-04T20:50:36.018Z,100661.25
2022-10-04T20:53:08.670Z,100669.16
2022-10-04T20:55:39.000Z,100675.25
2022-10-04T20:58:27.332Z,100659.75
2022-10-04T21:00:58.911Z,100669.31
2022-10-04T21:03:28.583Z,100663.25
2022-10-04T21:06:03.997Z,100667.56
2022-10-04T21:08:33.186Z,100658.97
2022-10-04T21:11:19.728Z,100665.97
2022-10-04T21:14:00.640Z,100663.44
2022-10-04T21:16:47.932Z,100662.56
2022-10-04T21:19:45.171Z,100645.25
2022-10-04T21:22:39.050Z,100640.88
2022-10-04T21:25:32.979Z,100640.03
2022-10-04T21:28:33.240Z,100643.63
2022-10-04T21:31:03.328Z,100640.19
2022-10-04T21:33:36.223Z,100638.56
2022-10-04T21:36:07.176Z,100634.28
2022-10-04T21:38:35.645Z,100636.09
2022-10-04T21:41:04.395Z,100634.44
2022-10-04T21:43:32.866Z,100632.75
2022-10-04T21:46:01.318Z,100633.63
2022-10-04T21:48:29.861Z,100635.47
2022-10-04T21:50:58.131Z,100631.09
2022-10-04T21:53:27.846Z,100625.13
2022-10-04T21:55:56.421Z,100619.88
2022-10-04T21:58:24.808Z,100623.34
2022-10-04T22:00:53.252Z,100629.38
2022-10-04T22:03:21.663Z,100618.16
2022-10-04T22:05:49.955Z,100613.88
2022-10-04T22:08:18.423Z,100616.47
2022-10-04T22:10:48.696Z,100612.19
2022-10-04T22:13:17.244Z,100620.00
2022-10-04T22:15:45.544Z,100620.84
2022-10-04T22:18:13.863Z,100619.09
2022-10-04T22:20:42.127Z,100618.28
2022-10-04T22:23:19.057Z,100626.03
2022-10-04T22:25:49.023Z,100612.84
2022-10-04T22:28:23.949Z,100609.25
2022-10-04T22:30:53.302Z,100615.03
2022-10-04T22:33:32.791Z,100612.38
2022-10-04T22:36:14.786Z,100610.59
2022-10-04T22:38:46.773Z,100607.34
2022-10-04T22:41:19.181Z,100601.25
2022-10-04T22:43:47.939Z,100595.13
2022-10-04T22:46:19.186Z,100597.78
2022-10-04T22:48:50.284Z,100597.84
2022-10-04T22:51:18.659Z,100593.63
2022-10-04T22:53:49.616Z,100592.09
2022-10-04T22:56:19.306Z,100587.88
2022-10-04T22:58:47.652Z,100589.63
2022-10-04T23:01:18.738Z,100593.19
2022-10-04T23:03:49.931Z,100597.53
2022-10-04T23:06:18.290Z,100595.00
2022-10-04T23:08:46.843Z,100595.94
2022-10-04T23:11:15.248Z,100592.44
2022-10-04T23:13:45.121Z,100588.16
2022-10-04T23:16:24.047Z,100596.00
2022-10-04T23:18:59.908Z,100595.06
2022-10-04T23:21:32.238Z,100596.00
2022-10-04T23:24:11.749Z,100596.91
2022-10-04T23:26:41.840Z,100601.22
2022-10-04T23:29:18.731Z,100602.91
2022-10-04T23:31:48.630Z,100597.69
2022-10-04T23:34:21.233Z,100603.78
2022-10-04T23:36:50.148Z,100603.78
2022-10-04T23:39:26.315Z,100604.69
2022-10-04T23:41:56.156Z,100617.69
2022-10-04T23:44:31.233Z,100616.00
2022-10-04T23:46:59.644Z,100610.84
2022-10-04T23:49:28.181Z,100618.66
2022-10-04T23:52:00.761Z,100623.00
2022-10-04T23:54:29.203Z,100619.56
2022-10-04T23:56:57.634Z,100622.16
2022-10-04T23:59:27.917Z,100625.66
